createdAt,value
2019-05-02T00:02:48.034Z,15.63
2019-05-02T00:05:54.329Z,16.30
2019-05-02T00:08:59.542Z,15.57
2019-05-02T00:12:07.278Z,16.50
2019-05-02T00:15:13.357Z,15.50
2019-05-02T00:18:18.699Z,15.37
2019-05-02T00:21:24.067Z,16.63
2019-05-02T00:24:29.169Z,16.87
2019-05-02T00:27:37.703Z,15.53
2019-05-02T00:30:41.362Z,15.57
2019-05-02T00:33:46.669Z,15.20
2019-05-02T00:36:51.933Z,16.37
2019-05-02T00:39:57.301Z,16.50
2019-05-02T00:43:04.777Z,14.80
2019-05-02T00:46:09.889Z,16.57
2019-05-02T00:49:15.035Z,14.90
2019-05-02T00:52:20.239Z,15.23
2019-05-02T00:55:28.874Z,15.90
2019-05-02T00:58:33.108Z,14.70
2019-05-02T01:02:05.311Z,15.43
2019-05-02T01:05:10.102Z,16.60
2019-05-02T01:08:15.277Z,16.90
2019-05-02T01:11:20.458Z,16.00
2019-05-02T01:14:27.091Z,16.70
2019-05-02T01:17:32.484Z,16.73
2019-05-02T01:20:37.715Z,15.60
2019-05-02T01:23:42.829Z,15.87
2019-05-02T01:27:04.558Z,17.03
2019-05-02T01:30:42.366Z,17.40
2019-05-02T01:34:04.485Z,16.30
2019-05-02T01:37:20.650Z,15.60
2019-05-02T01:40:22.251Z,15.70
2019-05-02T01:43:30.157Z,15.20
2019-05-02T01:46:35.324Z,16.37
2019-05-02T01:49:40.484Z,16.67
2019-05-02T01:52:45.689Z,15.60
2019-05-02T01:55:51.964Z,15.87
2019-05-02T01:58:58.866Z,15.70
2019-05-02T02:02:04.147Z,15.80
2019-05-02T02:05:09.514Z,16.80
2019-05-02T02:08:14.744Z,14.70
2019-05-02T02:11:19.939Z,14.60
2019-05-02T02:14:25.058Z,15.57
2019-05-02T02:17:30.294Z,13.97
2019-05-02T02:21:00.258Z,14.50
2019-05-02T02:24:09.962Z,15.17
2019-05-02T02:27:15.130Z,15.93
2019-05-02T02:30:24.285Z,14.83
2019-05-02T02:33:27.216Z,13.50
2019-05-02T02:36:34.883Z,14.27
2019-05-02T02:39:39.265Z,14.67
2019-05-02T02:42:44.768Z,14.90
2019-05-02T02:45:59.998Z,13.43
2019-05-02T02:49:05.508Z,15.23
2019-05-02T02:52:10.718Z,15.23
2019-05-02T02:55:21.310Z,14.97
2019-05-02T02:58:22.769Z,14.53
2019-05-02T03:01:29.713Z,14.67
2019-05-02T03:04:34.737Z,14.70
2019-05-02T03:07:39.849Z,15.17
2019-05-02T03:10:46.560Z,15.33
2019-05-02T03:14:12.994Z,14.67
2019-05-02T03:17:20.299Z,15.53
2019-05-02T03:20:25.138Z,15.10
2019-05-02T03:23:30.493Z,14.90
2019-05-02T03:26:35.636Z,15.63
2019-05-02T03:29:44.442Z,14.70
2019-05-02T03:33:03.418Z,16.00
2019-05-02T03:35:55.063Z,14.53
2019-05-02T03:39:00.315Z,15.40
2019-05-02T03:42:06.196Z,13.73
2019-05-02T03:45:11.418Z,15.70
2019-05-02T03:48:18.176Z,15.00
2019-05-02T03:51:25.215Z,16.33
2019-05-02T03:54:30.920Z,15.80
2019-05-02T03:57:36.344Z,15.77
2019-05-02T04:00:41.668Z,16.93
2019-05-02T04:03:47.468Z,15.63
2019-05-02T04:06:54.958Z,16.13
2019-05-02T04:10:00.552Z,17.20
2019-05-02T04:13:05.762Z,16.13
2019-05-02T04:16:15.365Z,15.37
2019-05-02T04:19:18.603Z,15.43
2019-05-02T04:22:26.483Z,15.40
2019-05-02T04:25:34.004Z,15.30
2019-05-02T04:28:39.103Z,17.20
2019-05-02T04:31:44.388Z,15.63
2019-05-02T04:34:55.781Z,16.90
2019-05-02T04:37:59.196Z,15.90
2019-05-02T04:41:03.739Z,17.00
2019-05-02T04:44:09.295Z,15.60
2019-05-02T04:47:20.638Z,17.97
2019-05-02T04:50:29.246Z,17.80
2019-05-02T04:53:41.019Z,17.70
2019-05-02T04:56:52.327Z,17.63
2019-05-02T04:59:50.388Z,19.07
2019-05-02T05:02:54.820Z,18.87
2019-05-02T05:06:07.130Z,18.77
2019-05-02T05:09:10.431Z,18.97
2019-05-02T05:12:14.806Z,22.10
2019-05-02T05:15:35.830Z,20.60
2019-05-02T05:18:27.488Z,19.33
2019-05-02T05:21:33.803Z,22.50
2019-05-02T05:24:58.283Z,20.60
2019-05-02T05:28:06.057Z,21.27
2019-05-02T05:31:10.346Z,19.00
2019-05-02T05:34:17.346Z,20.70
2019-05-02T05:37:22.531Z,22.10
2019-05-02T05:40:31.882Z,19.27
2019-05-02T05:43:34.606Z,18.97
2019-05-02T05:46:42.472Z,19.90
2019-05-02T05:49:47.769Z,19.87
2019-05-02T05:52:53.068Z,18.73
2019-05-02T05:56:02.378Z,19.53
2019-05-02T05:59:07.618Z,19.93
2019-05-02T06:02:14.612Z,19.53
2019-05-02T06:05:19.128Z,19.90
2019-05-02T06:08:24.327Z,20.73
2019-05-02T06:11:29.581Z,19.20
2019-05-02T06:14:34.858Z,19.30
2019-05-02T06:17:40.125Z,19.10
2019-05-02T06:20:45.306Z,18.80
2019-05-02T06:23:50.637Z,18.60
2019-05-02T06:26:55.891Z,20.23
2019-05-02T06:30:01.021Z,19.30
2019-05-02T06:33:06.353Z,19.30
2019-05-02T06:36:11.500Z,19.20
2019-05-02T06:39:16.722Z,18.50
2019-05-02T06:42:21.852Z,19.97
2019-05-02T06:45:27.562Z,19.50
2019-05-02T06:48:32.682Z,19.07
2019-05-02T06:51:37.831Z,18.73
2019-05-02T06:54:42.985Z,18.70
2019-05-02T06:57:48.207Z,18.83
2019-05-02T07:00:58.249Z,17.70
2019-05-02T07:04:03.832Z,18.97
2019-05-02T07:07:07.646Z,20.43
2019-05-02T07:10:13.073Z,19.67
2019-05-02T07:13:18.333Z,20.60
2019-05-02T07:16:38.537Z,18.30
2019-05-02T07:19:46.344Z,20.27
2019-05-02T07:22:51.528Z,18.37
2019-05-02T07:25:56.659Z,18.90
2019-05-02T07:29:01.771Z,20.07
2019-05-02T07:32:07.138Z,19.57
2019-05-02T07:35:12.337Z,19.43
2019-05-02T07:38:20.139Z,19.27
2019-05-02T07:41:29.040Z,17.80
2019-05-02T07:44:32.554Z,18.87
2019-05-02T07:47:40.303Z,19.70
2019-05-02T07:50:46.488Z,19.57
2019-05-02T07:53:55.179Z,17.80
2019-05-02T07:57:02.377Z,19.10
2019-05-02T08:00:08.931Z,19.87
2019-05-02T08:03:15.606Z,18.30
2019-05-02T08:06:34.365Z,18.20
2019-05-02T08:09:27.790Z,18.10
2019-05-02T08:12:33.046Z,20.83
2019-05-02T08:15:38.293Z,19.53
2019-05-02T08:18:43.445Z,18.30
2019-05-02T08:21:48.603Z,19.53
2019-05-02T08:24:54.270Z,19.30
2019-05-02T08:28:18.435Z,20.10
2019-05-02T08:31:24.918Z,20.70
2019-05-02T08:34:32.008Z,20.10
2019-05-02T08:37:41.103Z,20.43
2019-05-02T08:40:47.756Z,19.83
2019-05-02T08:43:53.430Z,20.07
2019-05-02T08:47:30.593Z,18.60
2019-05-02T08:50:44.989Z,19.20
2019-05-02T08:54:06.246Z,18.97
2019-05-02T08:57:11.252Z,18.80
2019-05-02T09:00:16.741Z,19.53
2019-05-02T09:03:21.855Z,19.50
2019-05-02T09:06:29.655Z,18.67
2019-05-02T09:09:34.991Z,19.47
2019-05-02T09:12:42.045Z,17.43
2019-05-02T09:15:51.341Z,17.97
2019-05-02T09:18:54.406Z,17.47
2019-05-02T09:21:59.739Z,17.13
2019-05-02T09:25:07.238Z,19.23
2019-05-02T09:28:12.610Z,17.30
2019-05-02T09:31:17.939Z,18.07
2019-05-02T09:34:26.722Z,18.83
2019-05-02T09:37:32.115Z,17.60
2019-05-02T09:40:37.456Z,17.43
2019-05-02T09:43:42.911Z,17.57
2019-05-02T09:46:55.226Z,16.23
2019-05-02T09:50:30.012Z,19.07
2019-05-02T09:53:28.410Z,17.83
2019-05-02T09:56:33.805Z,17.40
2019-05-02T09:59:43.363Z,16.60
2019-05-02T10:02:45.886Z,16.87
2019-05-02T10:05:52.347Z,19.00
2019-05-02T10:08:57.664Z,18.23
2019-05-02T10:12:02.866Z,17.75
2019-05-02T10:15:12.893Z,17.87
2019-05-02T10:18:19.612Z,17.07
2019-05-02T10:21:25.282Z,18.77
2019-05-02T10:24:32.256Z,18.30
2019-05-02T10:27:38.541Z,17.50
2019-05-02T10:30:47.263Z,18.40
2019-05-02T10:33:52.952Z,17.20
2019-05-02T10:37:00.960Z,19.03
2019-05-02T10:40:07.921Z,18.23
2019-05-02T10:43:13.678Z,18.90
2019-05-02T10:46:32.567Z,17.03
2019-05-02T10:49:49.755Z,21.07
2019-05-02T10:52:54.961Z,21.50
2019-05-02T10:56:02.705Z,20.20
2019-05-02T10:59:07.891Z,19.83
2019-05-02T11:02:32.765Z,20.20
2019-05-02T11:05:39.615Z,19.50
2019-05-02T11:08:46.151Z,21.30
2019-05-02T11:11:52.012Z,20.30
2019-05-02T11:15:16.353Z,19.10
2019-05-02T11:18:39.445Z,21.00
2019-05-02T11:21:32.285Z,22.43
2019-05-02T11:24:37.815Z,20.40
2019-05-02T11:27:43.038Z,21.90
2019-05-02T11:30:48.212Z,20.00
2019-05-02T11:33:54.770Z,21.60
2019-05-02T11:37:01.849Z,22.07
2019-05-02T11:40:08.634Z,21.30
2019-05-02T11:43:14.878Z,22.47
2019-05-02T11:46:22.121Z,21.17
2019-05-02T11:49:28.115Z,21.97
2019-05-02T11:52:37.382Z,21.97
2019-05-02T11:55:41.978Z,21.93
2019-05-02T11:58:48.377Z,21.13
2019-05-02T12:02:09.457Z,21.27
2019-05-02T12:05:13.984Z,21.53
2019-05-02T12:08:19.212Z,20.77
2019-05-02T12:11:25.820Z,22.30
2019-05-02T12:14:32.841Z,21.10
2019-05-02T12:17:39.633Z,20.50
2019-05-02T12:20:46.428Z,21.57
2019-05-02T12:23:53.278Z,20.67
2019-05-02T12:26:58.533Z,19.90
2019-05-02T12:30:03.902Z,20.80
2019-05-02T12:33:09.342Z,18.90
2019-05-02T12:36:14.483Z,19.30
2019-05-02T12:39:19.663Z,19.70
2019-05-02T12:42:25.245Z,18.90
2019-05-02T12:45:38.805Z,19.13
2019-05-02T12:48:46.238Z,17.83
2019-05-02T12:51:52.423Z,18.50
2019-05-02T12:55:02.108Z,18.60
2019-05-02T12:58:08.303Z,20.03
2019-05-02T13:01:13.629Z,20.20
2019-05-02T13:04:19.005Z,18.80
2019-05-02T13:07:24.262Z,18.83
2019-05-02T13:10:38.309Z,19.53
2019-05-02T13:13:43.799Z,20.00
2019-05-02T13:16:53.636Z,19.00
2019-05-02T13:20:00.762Z,19.30
2019-05-02T13:23:36.982Z,18.77
2019-05-02T13:26:42.884Z,18.57
2019-05-02T13:29:49.498Z,19.10
2019-05-02T13:32:58.144Z,19.10
2019-05-02T13:36:03.378Z,19.13
2019-05-02T13:39:14.795Z,18.77
2019-05-02T13:42:21.887Z,19.97
2019-05-02T13:45:47.765Z,19.60
2019-05-02T13:48:55.189Z,20.70
2019-05-02T13:52:02.348Z,19.53
2019-05-02T13:55:08.910Z,19.77
2019-05-02T13:58:14.157Z,21.67
2019-05-02T14:01:19.751Z,22.90
2019-05-02T14:04:25.219Z,23.03
2019-05-02T14:07:32.689Z,23.83
2019-05-02T14:10:41.057Z,22.63
2019-05-02T14:13:49.352Z,23.70
2019-05-02T14:16:56.605Z,24.17
2019-05-02T14:20:10.797Z,25.97
2019-05-02T14:23:09.021Z,23.80
2019-05-02T14:26:27.425Z,24.10
2019-05-02T14:29:22.069Z,24.80
2019-05-02T14:32:27.292Z,24.17
2019-05-02T14:35:36.793Z,26.47
2019-05-02T14:38:42.194Z,26.57
2019-05-02T14:41:47.502Z,24.77
2019-05-02T14:45:11.603Z,23.00
2019-05-02T14:48:17.756Z,21.40
2019-05-02T14:51:06.750Z,19.70
2019-05-02T14:54:12.222Z,21.37
2019-05-02T14:57:25.527Z,21.83
2019-05-02T15:00:31.589Z,20.90
2019-05-02T15:03:36.623Z,20.53
2019-05-02T15:06:43.565Z,23.03
2019-05-02T15:09:52.535Z,22.40
2019-05-02T15:13:03.385Z,22.70
2019-05-02T15:16:17.493Z,24.00
2019-05-02T15:19:18.614Z,23.70
2019-05-02T15:22:27.575Z,24.20
2019-05-02T15:25:37.427Z,25.07
2019-05-02T15:28:46.795Z,24.53
2019-05-02T15:32:21.926Z,25.90
2019-05-02T15:35:38.178Z,23.33
2019-05-02T15:38:47.373Z,24.93
2019-05-02T15:41:53.657Z,25.90
2019-05-02T15:45:05.689Z,24.07
2019-05-02T15:48:21.526Z,26.07
2019-05-02T15:51:23.423Z,25.73
2019-05-02T15:54:29.504Z,26.40
2019-05-02T15:57:43.766Z,28.27
2019-05-02T16:01:05.079Z,25.93
2019-05-02T16:04:12.715Z,24.57
2019-05-02T16:07:18.135Z,25.00
2019-05-02T16:10:25.552Z,24.37
2019-05-02T16:13:32.414Z,26.00
2019-05-02T16:16:41.781Z,27.10
2019-05-02T16:19:49.493Z,25.03
2019-05-02T16:22:54.749Z,26.40
2019-05-02T16:26:05.334Z,24.73
2019-05-02T16:29:07.066Z,26.33
2019-05-02T16:32:35.150Z,26.70
2019-05-02T16:35:38.967Z,25.50
2019-05-02T16:38:44.338Z,26.10
2019-05-02T16:41:50.639Z,27.80
2019-05-02T16:44:57.728Z,27.90
2019-05-02T16:48:03.431Z,27.87
2019-05-02T16:51:28.070Z,27.30
2019-05-02T16:54:15.887Z,27.00
2019-05-02T16:57:22.136Z,28.33
2019-05-02T17:00:28.057Z,29.60
2019-05-02T17:03:33.243Z,27.20
2019-05-02T17:06:39.804Z,29.60
2019-05-02T17:10:19.226Z,29.80
2019-05-02T17:13:27.469Z,28.23
2019-05-02T17:16:32.406Z,27.70
2019-05-02T17:19:37.718Z,29.10
2019-05-02T17:22:43.977Z,30.60
2019-05-02T17:25:49.876Z,29.37
2019-05-02T17:28:56.727Z,30.13
2019-05-02T17:32:02.256Z,30.57
2019-05-02T17:35:10.185Z,28.53
2019-05-02T17:38:19.091Z,30.83
2019-05-02T17:41:22.703Z,29.67
2019-05-02T17:44:27.885Z,28.87
2019-05-02T17:47:36.068Z,27.67
2019-05-02T17:51:01.937Z,25.80
2019-05-02T17:54:06.756Z,25.20
2019-05-02T17:57:14.077Z,26.47
2019-05-02T18:00:23.280Z,22.60
2019-05-02T18:03:31.008Z,24.10
2019-05-02T18:06:38.011Z,21.00
2019-05-02T18:09:45.242Z,23.87
2019-05-02T18:12:58.284Z,22.80
2019-05-02T18:16:07.845Z,22.90
2019-05-02T18:19:11.342Z,23.27
2019-05-02T18:22:24.133Z,25.30
2019-05-02T18:25:28.627Z,22.50
2019-05-02T18:28:45.824Z,23.60
2019-05-02T18:31:47.258Z,23.30
2019-05-02T18:34:51.997Z,22.40
2019-05-02T18:37:57.633Z,23.73
2019-05-02T18:41:06.205Z,23.03
2019-05-02T18:44:17.058Z,25.70
2019-05-02T18:47:33.346Z,24.87
2019-05-02T18:50:42.574Z,25.37
2019-05-02T18:53:47.344Z,24.67
2019-05-02T18:56:55.369Z,24.60
2019-05-02T19:00:04.207Z,23.97
2019-05-02T19:03:16.953Z,24.17
2019-05-02T19:06:22.027Z,23.00
2019-05-02T19:09:30.463Z,24.17
2019-05-02T19:12:37.609Z,22.40
2019-05-02T19:15:47.262Z,21.83
2019-05-02T19:18:54.293Z,21.00
2019-05-02T19:21:58.815Z,21.20
2019-05-02T19:25:05.196Z,20.77
2019-05-02T19:28:17.503Z,20.90
2019-05-02T19:31:31.940Z,20.93
2019-05-02T19:34:36.927Z,17.90
2019-05-02T19:37:46.080Z,18.43
2019-05-02T19:40:51.985Z,20.20
2019-05-02T19:43:57.823Z,19.50
2019-05-02T19:47:03.418Z,19.40
2019-05-02T19:50:43.892Z,19.77
2019-05-02T19:53:59.672Z,17.40
2019-05-02T19:57:02.548Z,17.37
2019-05-02T20:00:12.124Z,17.57
2019-05-02T20:03:21.742Z,16.80
2019-05-02T20:06:24.338Z,16.57
2019-05-02T20:09:31.838Z,17.57
2019-05-02T20:12:42.430Z,18.70
2019-05-02T20:15:49.868Z,11.73
2019-05-02T20:18:57.617Z,8.77
2019-05-02T20:22:12.876Z,8.10
2019-05-02T20:25:18.233Z,9.00
2019-05-02T20:28:23.525Z,8.20
2019-05-02T20:31:28.735Z,7.20
2019-05-02T20:34:33.980Z,6.53
2019-05-02T20:37:39.167Z,5.70
2019-05-02T20:40:44.406Z,5.30
2019-05-02T20:43:51.533Z,5.60
2019-05-02T20:46:56.523Z,5.10
2019-05-02T20:50:02.648Z,5.27
2019-05-02T20:53:28.756Z,4.67
2019-05-02T20:56:26.288Z,5.57
2019-05-02T20:59:32.258Z,5.33
2019-05-02T21:02:37.665Z,5.40
2019-05-02T21:05:52.074Z,4.43
2019-05-02T21:09:04.590Z,4.73
2019-05-02T21:12:14.347Z,4.30
2019-05-02T21:15:21.613Z,4.87
2019-05-02T21:18:26.672Z,5.30
2019-05-02T21:21:33.512Z,4.43
2019-05-02T21:24:42.077Z,4.43
2019-05-02T21:27:47.267Z,5.00
2019-05-02T21:30:52.560Z,4.80
2019-05-02T21:33:58.616Z,5.07
2019-05-02T21:37:03.827Z,5.20
2019-05-02T21:40:09.136Z,5.50
2019-05-02T21:43:14.277Z,5.10
2019-05-02T21:46:19.470Z,5.10
2019-05-02T21:49:49.335Z,5.13
2019-05-02T21:53:19.270Z,4.50
2019-05-02T21:56:32.294Z,5.27
2019-05-02T21:59:37.142Z,4.53
2019-05-02T22:02:42.503Z,5.43
2019-05-02T22:05:47.844Z,5.43
2019-05-02T22:08:52.930Z,4.67
2019-05-02T22:11:58.156Z,4.47
2019-05-02T22:15:03.366Z,4.87
2019-05-02T22:18:10.227Z,4.47
2019-05-02T22:21:15.321Z,4.63
2019-05-02T22:24:21.547Z,4.53
2019-05-02T22:27:26.734Z,5.03
2019-05-02T22:30:32.339Z,4.53
2019-05-02T22:33:37.567Z,4.27
2019-05-02T22:36:43.038Z,4.17
2019-05-02T22:39:55.914Z,4.30
2019-05-02T22:43:01.926Z,3.87
2019-05-02T22:46:09.650Z,3.83
2019-05-02T22:49:15.327Z,4.90
2019-05-02T22:52:21.796Z,4.20
2019-05-02T22:55:27.189Z,5.17
2019-05-02T22:58:32.733Z,4.00
2019-05-02T23:01:38.970Z,4.80
2019-05-02T23:04:44.196Z,4.73
2019-05-02T23:07:49.370Z,4.10
2019-05-02T23:10:55.319Z,3.63
2019-05-02T23:14:02.215Z,4.30
2019-05-02T23:17:08.104Z,4.70
2019-05-02T23:20:13.894Z,4.50
2019-05-02T23:23:19.444Z,5.00
2019-05-02T23:26:43.669Z,5.50
2019-05-02T23:29:49.310Z,5.20
2019-05-02T23:32:54.482Z,4.77
2019-05-02T23:35:59.645Z,4.97
2019-05-02T23:39:08.916Z,5.30
2019-05-02T23:42:14.075Z,4.60
2019-05-02T23:45:19.345Z,5.63
2019-05-02T23:48:24.559Z,4.80
2019-05-02T23:51:31.889Z,5.80
2019-05-02T23:54:48.882Z,4.93
2019-05-02T23:57:43.608Z,5.30
